sensor_id;sensor_type;location;lat;lon;timestamp;temperature;humidity
34698;DHT22;61391;50.922;6.928;2023-09-19T00:01:28;17.60;99.90
34698;DHT22;61391;50.922;6.928;2023-09-19T00:03:55;17.60;99.90
34698;DHT22;61391;50.922;6.928;2023-09-19T00:06:22;17.60;99.90
34698;DHT22;61391;50.922;6.928;2023-09-19T00:08:51;17.50;99.90
34698;DHT22;61391;50.922;6.928;2023-09-19T00:11:16;17.50;99.90
34698;DHT22;61391;50.922;6.928;2023-09-19T00:13:42;17.50;99.90
34698;DHT22;61391;50.922;6.928;2023-09-19T00:16:11;17.60;99.90
34698;DHT22;61391;50.922;6.928;2023-09-19T00:18:37;17.50;99.90
34698;DHT22;61391;50.922;6.928;2023-09-19T00:21:03;17.40;99.90
34698;DHT22;61391;50.922;6.928;2023-09-19T00:23:30;17.40;99.90
34698;DHT22;61391;50.922;6.928;2023-09-19T00:26:00;17.30;99.90
34698;DHT22;61391;50.922;6.928;2023-09-19T00:28:26;17.20;99.90
34698;DHT22;61391;50.922;6.928;2023-09-19T00:30:52;17.30;99.90
34698;DHT22;61391;50.922;6.928;2023-09-19T00:33:20;17.40;99.90
34698;DHT22;61391;50.922;6.928;2023-09-19T00:35:46;17.40;99.90
34698;DHT22;61391;50.922;6.928;2023-09-19T00:38:12;17.40;99.90
34698;DHT22;61391;50.922;6.928;2023-09-19T00:40:43;17.40;99.90
34698;DHT22;61391;50.922;6.928;2023-09-19T00:43:09;17.40;99.90
34698;DHT22;61391;50.922;6.928;2023-09-19T00:45:35;17.50;99.90
34698;DHT22;61391;50.922;6.928;2023-09-19T00:48:01;17.40;99.90
34698;DHT22;61391;50.922;6.928;2023-09-19T00:50:29;17.50;99.90
34698;DHT22;61391;50.922;6.928;2023-09-19T00:52:57;17.50;99.90
34698;DHT22;61391;50.922;6.928;2023-09-19T00:55:24;17.40;99.90
34698;DHT22;61391;50.922;6.928;2023-09-19T00:57:49;17.30;99.90
34698;DHT22;61391;50.922;6.928;2023-09-19T01:00:15;17.30;99.90
34698;DHT22;61391;50.922;6.928;2023-09-19T01:02:41;17.40;99.90
34698;DHT22;61391;50.922;6.928;2023-09-19T01:05:08;17.40;99.90
34698;DHT22;61391;50.922;6.928;2023-09-19T01:07:35;17.40;99.90
34698;DHT22;61391;50.922;6.928;2023-09-19T01:10:04;17.50;99.90
34698;DHT22;61391;50.922;6.928;2023-09-19T01:17:53;17.60;99.90
34698;DHT22;61391;50.922;6.928;2023-09-19T01:20:25;17.70;99.90
34698;DHT22;61391;50.922;6.928;2023-09-19T01:22:55;17.70;99.90
34698;DHT22;61391;50.922;6.928;2023-09-19T01:28:14;17.80;99.90
34698;DHT22;61391;50.922;6.928;2023-09-19T01:30:44;17.80;99.90
34698;DHT22;61391;50.922;6.928;2023-09-19T01:33:11;17.70;99.90
34698;DHT22;61391;50.922;6.928;2023-09-19T01:35:39;17.60;99.90
34698;DHT22;61391;50.922;6.928;2023-09-19T01:38:05;17.40;99.90
34698;DHT22;61391;50.922;6.928;2023-09-19T01:40:34;17.40;99.90
34698;DHT22;61391;50.922;6.928;2023-09-19T01:45:37;17.40;99.90
34698;DHT22;61391;50.922;6.928;2023-09-19T01:51:05;17.40;99.90
34698;DHT22;61391;50.922;6.928;2023-09-19T01:56:03;17.40;99.90
34698;DHT22;61391;50.922;6.928;2023-09-19T01:58:35;17.40;99.90
34698;DHT22;61391;50.922;6.928;2023-09-19T02:01:03;17.40;99.90
34698;DHT22;61391;50.922;6.928;2023-09-19T02:03:31;17.40;99.90
34698;DHT22;61391;50.922;6.928;2023-09-19T02:05:57;17.40;99.90
34698;DHT22;61391;50.922;6.928;2023-09-19T02:08:22;17.50;99.90
34698;DHT22;61391;50.922;6.928;2023-09-19T02:10:51;17.40;99.90
34698;DHT22;61391;50.922;6.928;2023-09-19T02:19:23;17.40;99.90
34698;DHT22;61391;50.922;6.928;2023-09-19T02:21:49;17.40;99.90
34698;DHT22;61391;50.922;6.928;2023-09-19T02:24:14;17.30;99.90
34698;DHT22;61391;50.922;6.928;2023-09-19T02:26:41;17.40;99.90
34698;DHT22;61391;50.922;6.928;2023-09-19T02:29:06;17.30;99.90
34698;DHT22;61391;50.922;6.928;2023-09-19T02:31:32;17.30;99.90
34698;DHT22;61391;50.922;6.928;2023-09-19T02:33:57;17.20;99.90
34698;DHT22;61391;50.922;6.928;2023-09-19T02:36:22;17.20;99.90
34698;DHT22;61391;50.922;6.928;2023-09-19T02:38:49;17.30;99.90
34698;DHT22;61391;50.922;6.928;2023-09-19T02:41:14;17.40;99.90
34698;DHT22;61391;50.922;6.928;2023-09-19T02:43:40;17.20;99.90
34698;DHT22;61391;50.922;6.928;2023-09-19T02:46:05;17.10;99.90
34698;DHT22;61391;50.922;6.928;2023-09-19T02:48:31;17.10;99.90
34698;DHT22;61391;50.922;6.928;2023-09-19T02:50:57;17.10;99.90
34698;DHT22;61391;50.922;6.928;2023-09-19T02:53:23;17.00;99.90
34698;DHT22;61391;50.922;6.928;2023-09-19T02:55:49;17.00;99.90
34698;DHT22;61391;50.922;6.928;2023-09-19T02:58:15;16.90;99.90
34698;DHT22;61391;50.922;6.928;2023-09-19T03:00:40;16.80;99.90
34698;DHT22;61391;50.922;6.928;2023-09-19T03:03:12;16.70;99.90
34698;DHT22;61391;50.922;6.928;2023-09-19T03:05:37;16.70;99.90
34698;DHT22;61391;50.922;6.928;2023-09-19T03:08:03;16.60;99.90
34698;DHT22;61391;50.922;6.928;2023-09-19T03:10:30;16.60;99.90
34698;DHT22;61391;50.922;6.928;2023-09-19T03:12:56;16.60;99.90
34698;DHT22;61391;50.922;6.928;2023-09-19T03:18:25;16.50;99.90
34698;DHT22;61391;50.922;6.928;2023-09-19T03:20:52;16.60;99.90
34698;DHT22;61391;50.922;6.928;2023-09-19T03:23:19;16.60;99.90
34698;DHT22;61391;50.922;6.928;2023-09-19T03:25:44;16.60;99.90
34698;DHT22;61391;50.922;6.928;2023-09-19T03:28:10;16.60;99.90
34698;DHT22;61391;50.922;6.928;2023-09-19T03:30:35;16.60;99.90
34698;DHT22;61391;50.922;6.928;2023-09-19T03:33:01;16.60;99.90
34698;DHT22;61391;50.922;6.928;2023-09-19T03:35:26;16.60;99.90
34698;DHT22;61391;50.922;6.928;2023-09-19T03:37:52;16.60;99.90
34698;DHT22;61391;50.922;6.928;2023-09-19T03:40:18;16.50;99.90
34698;DHT22;61391;50.922;6.928;2023-09-19T03:42:45;16.50;99.90
34698;DHT22;61391;50.922;6.928;2023-09-19T03:45:11;16.50;99.90
34698;DHT22;61391;50.922;6.928;2023-09-19T03:47:38;16.60;99.90
34698;DHT22;61391;50.922;6.928;2023-09-19T03:50:04;16.60;99.90
34698;DHT22;61391;50.922;6.928;2023-09-19T03:52:30;16.50;99.90
34698;DHT22;61391;50.922;6.928;2023-09-19T03:54:55;16.40;99.90
34698;DHT22;61391;50.922;6.928;2023-09-19T03:57:21;16.40;99.90
34698;DHT22;61391;50.922;6.928;2023-09-19T03:59:46;16.50;99.90
34698;DHT22;61391;50.922;6.928;2023-09-19T04:02:12;16.70;99.90
34698;DHT22;61391;50.922;6.928;2023-09-19T04:04:50;16.60;99.90
34698;DHT22;61391;50.922;6.928;2023-09-19T04:07:16;16.60;99.90
34698;DHT22;61391;50.922;6.928;2023-09-19T04:09:42;16.60;99.90
34698;DHT22;61391;50.922;6.928;2023-09-19T04:12:07;16.70;99.90
34698;DHT22;61391;50.922;6.928;2023-09-19T04:14:34;16.70;99.90
34698;DHT22;61391;50.922;6.928;2023-09-19T04:16:59;16.80;99.90
34698;DHT22;61391;50.922;6.928;2023-09-19T04:19:26;16.70;99.90
34698;DHT22;61391;50.922;6.928;2023-09-19T04:21:51;16.70;99.90
34698;DHT22;61391;50.922;6.928;2023-09-19T04:27:19;16.80;99.90
34698;DHT22;61391;50.922;6.928;2023-09-19T04:29:45;16.60;99.90
34698;DHT22;61391;50.922;6.928;2023-09-19T04:32:10;16.60;99.90
34698;DHT22;61391;50.922;6.928;2023-09-19T04:34:36;16.50;99.90
34698;DHT22;61391;50.922;6.928;2023-09-19T04:37:01;16.30;99.90
34698;DHT22;61391;50.922;6.928;2023-09-19T04:39:37;16.10;99.90
34698;DHT22;61391;50.922;6.928;2023-09-19T04:42:02;16.10;99.90
34698;DHT22;61391;50.922;6.928;2023-09-19T04:44:29;16.30;99.90
34698;DHT22;61391;50.922;6.928;2023-09-19T04:46:54;16.20;99.90
34698;DHT22;61391;50.922;6.928;2023-09-19T04:49:20;16.20;99.90
34698;DHT22;61391;50.922;6.928;2023-09-19T04:51:45;16.40;99.90
34698;DHT22;61391;50.922;6.928;2023-09-19T04:57:15;16.60;99.90
34698;DHT22;61391;50.922;6.928;2023-09-19T04:59:41;16.60;99.90
34698;DHT22;61391;50.922;6.928;2023-09-19T05:02:06;16.70;99.90
34698;DHT22;61391;50.922;6.928;2023-09-19T05:04:35;16.70;99.90
34698;DHT22;61391;50.922;6.928;2023-09-19T05:07:00;16.70;99.90
34698;DHT22;61391;50.922;6.928;2023-09-19T05:09:28;16.80;99.90
34698;DHT22;61391;50.922;6.928;2023-09-19T05:11:54;16.70;99.90
34698;DHT22;61391;50.922;6.928;2023-09-19T05:14:19;16.60;99.90
34698;DHT22;61391;50.922;6.928;2023-09-19T05:16:46;16.40;99.90
34698;DHT22;61391;50.922;6.928;2023-09-19T05:19:11;16.40;99.90
34698;DHT22;61391;50.922;6.928;2023-09-19T05:21:37;16.40;99.90
34698;DHT22;61391;50.922;6.928;2023-09-19T05:24:07;16.30;99.90
34698;DHT22;61391;50.922;6.928;2023-09-19T05:26:32;16.30;99.90
34698;DHT22;61391;50.922;6.928;2023-09-19T05:28:58;16.30;99.90
34698;DHT22;61391;50.922;6.928;2023-09-19T05:31:23;16.30;99.90
34698;DHT22;61391;50.922;6.928;2023-09-19T05:33:51;16.30;99.90
34698;DHT22;61391;50.922;6.928;2023-09-19T05:36:16;16.30;99.90
34698;DHT22;61391;50.922;6.928;2023-09-19T05:38:50;16.30;99.90
34698;DHT22;61391;50.922;6.928;2023-09-19T05:41:18;16.30;99.90
34698;DHT22;61391;50.922;6.928;2023-09-19T05:43:43;16.30;99.90
34698;DHT22;61391;50.922;6.928;2023-09-19T05:46:09;16.40;99.90
34698;DHT22;61391;50.922;6.928;2023-09-19T05:48:44;16.50;99.90
34698;DHT22;61391;50.922;6.928;2023-09-19T05:51:09;16.40;99.90
34698;DHT22;61391;50.922;6.928;2023-09-19T05:53:35;16.50;99.90
34698;DHT22;61391;50.922;6.928;2023-09-19T05:56:01;16.50;99.90
34698;DHT22;61391;50.922;6.928;2023-09-19T05:58:26;16.50;99.90
34698;DHT22;61391;50.922;6.928;2023-09-19T06:00:52;16.50;99.90
34698;DHT22;61391;50.922;6.928;2023-09-19T06:03:17;16.60;99.90
34698;DHT22;61391;50.922;6.928;2023-09-19T06:05:44;16.60;99.90
34698;DHT22;61391;50.922;6.928;2023-09-19T06:08:11;16.70;99.90
34698;DHT22;61391;50.922;6.928;2023-09-19T06:10:37;16.70;99.90
34698;DHT22;61391;50.922;6.928;2023-09-19T06:13:03;16.60;99.90
34698;DHT22;61391;50.922;6.928;2023-09-19T06:15:35;16.40;99.90
34698;DHT22;61391;50.922;6.928;2023-09-19T06:18:03;16.40;99.90
34698;DHT22;61391;50.922;6.928;2023-09-19T06:20:32;16.80;99.90
34698;DHT22;61391;50.922;6.928;2023-09-19T06:22:58;16.70;99.90
34698;DHT22;61391;50.922;6.928;2023-09-19T06:25:24;16.80;99.90
34698;DHT22;61391;50.922;6.928;2023-09-19T06:27:53;16.90;99.90
34698;DHT22;61391;50.922;6.928;2023-09-19T06:30:22;17.00;99.90
34698;DHT22;61391;50.922;6.928;2023-09-19T06:32:55;17.10;99.90
34698;DHT22;61391;50.922;6.928;2023-09-19T06:35:20;17.20;99.90
34698;DHT22;61391;50.922;6.928;2023-09-19T06:37:46;17.30;99.90
34698;DHT22;61391;50.922;6.928;2023-09-19T06:43:16;17.40;99.90
34698;DHT22;61391;50.922;6.928;2023-09-19T06:48:33;17.30;99.90
34698;DHT22;61391;50.922;6.928;2023-09-19T06:50:59;17.20;99.90
34698;DHT22;61391;50.922;6.928;2023-09-19T06:53:30;17.30;99.90
34698;DHT22;61391;50.922;6.928;2023-09-19T06:55:57;17.50;99.90
34698;DHT22;61391;50.922;6.928;2023-09-19T06:58:22;17.20;99.90
34698;DHT22;61391;50.922;6.928;2023-09-19T07:00:48;17.40;99.90
34698;DHT22;61391;50.922;6.928;2023-09-19T07:03:15;17.60;99.90
34698;DHT22;61391;50.922;6.928;2023-09-19T07:05:46;18.00;99.90
34698;DHT22;61391;50.922;6.928;2023-09-19T07:08:16;17.80;99.90
34698;DHT22;61391;50.922;6.928;2023-09-19T07:10:42;18.30;99.90
34698;DHT22;61391;50.922;6.928;2023-09-19T07:13:14;18.60;99.90
34698;DHT22;61391;50.922;6.928;2023-09-19T07:15:42;18.70;99.90
34698;DHT22;61391;50.922;6.928;2023-09-19T07:18:15;18.90;99.90
34698;DHT22;61391;50.922;6.928;2023-09-19T07:20:42;18.30;99.90
34698;DHT22;61391;50.922;6.928;2023-09-19T07:23:14;17.90;99.90
34698;DHT22;61391;50.922;6.928;2023-09-19T07:25:40;18.30;99.90
34698;DHT22;61391;50.922;6.928;2023-09-19T07:28:06;18.90;99.90
34698;DHT22;61391;50.922;6.928;2023-09-19T07:30:31;19.20;99.90
34698;DHT22;61391;50.922;6.928;2023-09-19T07:32:57;19.50;99.90
34698;DHT22;61391;50.922;6.928;2023-09-19T07:35:22;19.80;99.90
34698;DHT22;61391;50.922;6.928;2023-09-19T07:40:51;19.60;99.90
34698;DHT22;61391;50.922;6.928;2023-09-19T07:43:16;19.60;99.90
34698;DHT22;61391;50.922;6.928;2023-09-19T07:45:43;19.10;99.90
34698;DHT22;61391;50.922;6.928;2023-09-19T07:48:08;19.60;99.90
34698;DHT22;61391;50.922;6.928;2023-09-19T07:50:39;19.90;99.90
34698;DHT22;61391;50.922;6.928;2023-09-19T07:53:05;20.70;99.90
34698;DHT22;61391;50.922;6.928;2023-09-19T07:55:31;20.90;99.90
34698;DHT22;61391;50.922;6.928;2023-09-19T07:57:59;21.20;99.90
34698;DHT22;61391;50.922;6.928;2023-09-19T08:00:25;21.80;99.90
34698;DHT22;61391;50.922;6.928;2023-09-19T08:02:51;21.60;99.90
34698;DHT22;61391;50.922;6.928;2023-09-19T08:05:19;21.70;99.90
34698;DHT22;61391;50.922;6.928;2023-09-19T08:07:46;21.80;99.90
34698;DHT22;61391;50.922;6.928;2023-09-19T08:10:14;21.40;99.90
34698;DHT22;61391;50.922;6.928;2023-09-19T08:12:41;21.90;99.90
34698;DHT22;61391;50.922;6.928;2023-09-19T08:17:38;22.10;99.90
34698;DHT22;61391;50.922;6.928;2023-09-19T08:20:04;22.40;99.90
34698;DHT22;61391;50.922;6.928;2023-09-19T08:22:30;22.30;99.90
34698;DHT22;61391;50.922;6.928;2023-09-19T08:24:58;22.90;99.90
34698;DHT22;61391;50.922;6.928;2023-09-19T08:27:44;23.00;99.90
34698;DHT22;61391;50.922;6.928;2023-09-19T08:30:17;22.90;99.90
34698;DHT22;61391;50.922;6.928;2023-09-19T08:32:46;21.90;99.90
34698;DHT22;61391;50.922;6.928;2023-09-19T08:35:13;22.40;99.90
34698;DHT22;61391;50.922;6.928;2023-09-19T08:37:42;22.70;99.90
34698;DHT22;61391;50.922;6.928;2023-09-19T08:40:10;23.10;99.90
34698;DHT22;61391;50.922;6.928;2023-09-19T08:42:54;23.30;99.90
34698;DHT22;61391;50.922;6.928;2023-09-19T08:45:20;23.50;99.90
34698;DHT22;61391;50.922;6.928;2023-09-19T08:50:31;22.30;99.90
34698;DHT22;61391;50.922;6.928;2023-09-19T08:52:59;22.50;99.90
34698;DHT22;61391;50.922;6.928;2023-09-19T08:55:28;22.20;99.90
34698;DHT22;61391;50.922;6.928;2023-09-19T08:58:01;22.10;99.90
34698;DHT22;61391;50.922;6.928;2023-09-19T09:00:28;22.30;99.90
34698;DHT22;61391;50.922;6.928;2023-09-19T09:02:58;22.80;99.90
34698;DHT22;61391;50.922;6.928;2023-09-19T09:05:24;22.50;99.90
34698;DHT22;61391;50.922;6.928;2023-09-19T09:07:50;22.60;99.90
34698;DHT22;61391;50.922;6.928;2023-09-19T09:10:17;23.00;99.90
34698;DHT22;61391;50.922;6.928;2023-09-19T09:12:43;22.80;99.90
34698;DHT22;61391;50.922;6.928;2023-09-19T09:15:09;22.70;99.90
34698;DHT22;61391;50.922;6.928;2023-09-19T09:17:37;23.20;99.90
34698;DHT22;61391;50.922;6.928;2023-09-19T09:20:02;24.10;99.90
34698;DHT22;61391;50.922;6.928;2023-09-19T09:22:30;24.60;99.90
34698;DHT22;61391;50.922;6.928;2023-09-19T09:24:57;24.90;99.90
34698;DHT22;61391;50.922;6.928;2023-09-19T09:27:30;25.10;99.90
34698;DHT22;61391;50.922;6.928;2023-09-19T09:29:56;24.80;99.90
34698;DHT22;61391;50.922;6.928;2023-09-19T09:34:50;25.50;99.90
34698;DHT22;61391;50.922;6.928;2023-09-19T09:37:16;25.00;99.90
34698;DHT22;61391;50.922;6.928;2023-09-19T09:39:54;25.60;99.90
34698;DHT22;61391;50.922;6.928;2023-09-19T09:42:28;25.90;99.30
34698;DHT22;61391;50.922;6.928;2023-09-19T09:45:18;26.30;98.30
34698;DHT22;61391;50.922;6.928;2023-09-19T09:50:23;25.90;98.20
34698;DHT22;61391;50.922;6.928;2023-09-19T09:52:54;25.70;98.70
34698;DHT22;61391;50.922;6.928;2023-09-19T09:55:26;25.60;98.90
34698;DHT22;61391;50.922;6.928;2023-09-19T09:58:02;25.50;98.00
34698;DHT22;61391;50.922;6.928;2023-09-19T10:00:51;24.00;99.90
34698;DHT22;61391;50.922;6.928;2023-09-19T10:03:21;23.20;99.90
34698;DHT22;61391;50.922;6.928;2023-09-19T10:05:52;23.70;99.90
34698;DHT22;61391;50.922;6.928;2023-09-19T10:08:20;23.90;99.90
34698;DHT22;61391;50.922;6.928;2023-09-19T10:10:46;24.20;99.90
34698;DHT22;61391;50.922;6.928;2023-09-19T10:13:17;23.30;99.90
34698;DHT22;61391;50.922;6.928;2023-09-19T10:15:50;23.90;99.90
34698;DHT22;61391;50.922;6.928;2023-09-19T10:18:19;24.30;99.90
34698;DHT22;61391;50.922;6.928;2023-09-19T10:20:45;23.80;99.90
34698;DHT22;61391;50.922;6.928;2023-09-19T10:23:11;22.80;99.90
34698;DHT22;61391;50.922;6.928;2023-09-19T10:25:41;23.10;99.90
34698;DHT22;61391;50.922;6.928;2023-09-19T10:28:07;23.20;99.90
34698;DHT22;61391;50.922;6.928;2023-09-19T10:30:46;23.40;99.90
34698;DHT22;61391;50.922;6.928;2023-09-19T10:33:16;22.40;99.90
34698;DHT22;61391;50.922;6.928;2023-09-19T10:35:46;22.60;99.90
34698;DHT22;61391;50.922;6.928;2023-09-19T10:38:12;22.60;99.90
34698;DHT22;61391;50.922;6.928;2023-09-19T10:40:38;23.10;99.90
34698;DHT22;61391;50.922;6.928;2023-09-19T10:43:12;24.30;99.90
34698;DHT22;61391;50.922;6.928;2023-09-19T10:45:38;24.80;99.90
34698;DHT22;61391;50.922;6.928;2023-09-19T10:48:05;24.80;99.90
34698;DHT22;61391;50.922;6.928;2023-09-19T10:50:34;24.00;99.90
34698;DHT22;61391;50.922;6.928;2023-09-19T10:53:02;23.70;99.90
34698;DHT22;61391;50.922;6.928;2023-09-19T10:55:30;22.90;99.90
34698;DHT22;61391;50.922;6.928;2023-09-19T10:57:56;22.70;99.90
34698;DHT22;61391;50.922;6.928;2023-09-19T11:00:57;23.30;99.90
34698;DHT22;61391;50.922;6.928;2023-09-19T11:03:40;24.00;99.90
34698;DHT22;61391;50.922;6.928;2023-09-19T11:06:10;23.80;99.90
34698;DHT22;61391;50.922;6.928;2023-09-19T11:22:14;22.80;99.90
34698;DHT22;61391;50.922;6.928;2023-09-19T11:24:39;22.40;99.90
34698;DHT22;61391;50.922;6.928;2023-09-19T11:27:09;22.30;99.90
34698;DHT22;61391;50.922;6.928;2023-09-19T11:29:35;22.40;99.90
34698;DHT22;61391;50.922;6.928;2023-09-19T11:32:11;22.60;99.90
34698;DHT22;61391;50.922;6.928;2023-09-19T11:34:41;22.70;99.90
34698;DHT22;61391;50.922;6.928;2023-09-19T11:39:37;22.70;99.90
34698;DHT22;61391;50.922;6.928;2023-09-19T11:47:55;22.20;99.90
34698;DHT22;61391;50.922;6.928;2023-09-19T11:50:22;22.60;99.90
34698;DHT22;61391;50.922;6.928;2023-09-19T11:52:49;22.90;99.90
34698;DHT22;61391;50.922;6.928;2023-09-19T11:55:16;23.10;99.90
34698;DHT22;61391;50.922;6.928;2023-09-19T11:57:47;22.90;99.90
34698;DHT22;61391;50.922;6.928;2023-09-19T12:03:21;22.30;99.90
34698;DHT22;61391;50.922;6.928;2023-09-19T12:05:47;22.70;99.90
34698;DHT22;61391;50.922;6.928;2023-09-19T12:08:14;22.90;99.90
34698;DHT22;61391;50.922;6.928;2023-09-19T12:10:48;23.00;99.90
34698;DHT22;61391;50.922;6.928;2023-09-19T12:13:17;23.00;99.70
34698;DHT22;61391;50.922;6.928;2023-09-19T12:15:43;22.70;99.90
34698;DHT22;61391;50.922;6.928;2023-09-19T12:18:25;22.50;99.90
34698;DHT22;61391;50.922;6.928;2023-09-19T12:20:50;22.60;99.90
34698;DHT22;61391;50.922;6.928;2023-09-19T12:23:17;22.60;99.90
34698;DHT22;61391;50.922;6.928;2023-09-19T12:25:43;22.60;99.90
34698;DHT22;61391;50.922;6.928;2023-09-19T12:28:12;22.40;99.90
34698;DHT22;61391;50.922;6.928;2023-09-19T12:30:37;22.30;99.90
34698;DHT22;61391;50.922;6.928;2023-09-19T12:33:19;22.30;99.90
34698;DHT22;61391;50.922;6.928;2023-09-19T12:35:51;22.20;99.90
34698;DHT22;61391;50.922;6.928;2023-09-19T12:38:27;22.40;99.90
34698;DHT22;61391;50.922;6.928;2023-09-19T12:41:01;22.40;99.90
34698;DHT22;61391;50.922;6.928;2023-09-19T12:43:30;22.40;99.90
34698;DHT22;61391;50.922;6.928;2023-09-19T12:45:58;22.50;99.90
34698;DHT22;61391;50.922;6.928;2023-09-19T12:48:25;22.40;99.90
34698;DHT22;61391;50.922;6.928;2023-09-19T12:51:01;22.40;99.90
34698;DHT22;61391;50.922;6.928;2023-09-19T12:53:29;22.10;99.90
34698;DHT22;61391;50.922;6.928;2023-09-19T12:55:58;22.30;99.90
34698;DHT22;61391;50.922;6.928;2023-09-19T12:58:25;22.60;99.90
34698;DHT22;61391;50.922;6.928;2023-09-19T13:00:50;22.30;99.90
34698;DHT22;61391;50.922;6.928;2023-09-19T13:05:57;22.70;99.90
34698;DHT22;61391;50.922;6.928;2023-09-19T13:08:24;22.70;99.90
34698;DHT22;61391;50.922;6.928;2023-09-19T13:11:01;22.70;99.90
34698;DHT22;61391;50.922;6.928;2023-09-19T13:13:27;22.40;99.90
34698;DHT22;61391;50.922;6.928;2023-09-19T13:15:53;22.50;99.90
34698;DHT22;61391;50.922;6.928;2023-09-19T13:18:19;22.60;99.90
34698;DHT22;61391;50.922;6.928;2023-09-19T13:21:05;22.60;99.90
34698;DHT22;61391;50.922;6.928;2023-09-19T13:23:30;22.40;99.90
34698;DHT22;61391;50.922;6.928;2023-09-19T13:25:56;22.20;99.90
34698;DHT22;61391;50.922;6.928;2023-09-19T13:28:22;22.30;99.90
34698;DHT22;61391;50.922;6.928;2023-09-19T13:30:47;22.50;99.90
34698;DHT22;61391;50.922;6.928;2023-09-19T13:33:16;22.30;99.90
34698;DHT22;61391;50.922;6.928;2023-09-19T13:35:46;22.20;99.90
34698;DHT22;61391;50.922;6.928;2023-09-19T13:38:13;22.30;99.90
34698;DHT22;61391;50.922;6.928;2023-09-19T13:40:39;22.60;99.90
34698;DHT22;61391;50.922;6.928;2023-09-19T13:43:09;22.50;99.90
34698;DHT22;61391;50.922;6.928;2023-09-19T13:45:36;22.50;99.90
34698;DHT22;61391;50.922;6.928;2023-09-19T13:48:02;22.40;99.90
34698;DHT22;61391;50.922;6.928;2023-09-19T13:50:28;22.30;99.90
34698;DHT22;61391;50.922;6.928;2023-09-19T13:52:54;22.20;99.90
34698;DHT22;61391;50.922;6.928;2023-09-19T13:55:19;22.30;99.90
34698;DHT22;61391;50.922;6.928;2023-09-19T13:57:46;22.50;99.90
34698;DHT22;61391;50.922;6.928;2023-09-19T14:00:12;22.70;99.90
34698;DHT22;61391;50.922;6.928;2023-09-19T14:02:41;22.80;99.90
34698;DHT22;61391;50.922;6.928;2023-09-19T14:05:09;22.60;99.90
34698;DHT22;61391;50.922;6.928;2023-09-19T14:07:37;22.50;99.90
34698;DHT22;61391;50.922;6.928;2023-09-19T14:10:03;22.60;99.90
34698;DHT22;61391;50.922;6.928;2023-09-19T14:12:36;22.30;99.90
34698;DHT22;61391;50.922;6.928;2023-09-19T14:15:03;22.50;99.90
34698;DHT22;61391;50.922;6.928;2023-09-19T14:17:28;22.70;99.90
34698;DHT22;61391;50.922;6.928;2023-09-19T14:19:54;22.50;99.90
34698;DHT22;61391;50.922;6.928;2023-09-19T14:22:19;22.50;99.90
34698;DHT22;61391;50.922;6.928;2023-09-19T14:24:45;22.30;99.90
34698;DHT22;61391;50.922;6.928;2023-09-19T14:27:10;22.30;99.90
34698;DHT22;61391;50.922;6.928;2023-09-19T14:29:36;22.30;99.90
34698;DHT22;61391;50.922;6.928;2023-09-19T14:32:02;22.40;99.90
34698;DHT22;61391;50.922;6.928;2023-09-19T14:34:27;22.50;99.90
34698;DHT22;61391;50.922;6.928;2023-09-19T14:36:53;22.50;99.90
34698;DHT22;61391;50.922;6.928;2023-09-19T14:39:19;22.40;99.90
34698;DHT22;61391;50.922;6.928;2023-09-19T14:41:45;22.50;99.90
34698;DHT22;61391;50.922;6.928;2023-09-19T14:44:10;22.40;99.90
34698;DHT22;61391;50.922;6.928;2023-09-19T14:46:36;22.10;99.90
34698;DHT22;61391;50.922;6.928;2023-09-19T14:49:02;22.20;99.90
34698;DHT22;61391;50.922;6.928;2023-09-19T14:51:29;22.00;99.90
34698;DHT22;61391;50.922;6.928;2023-09-19T14:53:55;22.10;99.90
34698;DHT22;61391;50.922;6.928;2023-09-19T14:56:22;22.10;99.90
34698;DHT22;61391;50.922;6.928;2023-09-19T14:58:49;22.20;99.90
34698;DHT22;61391;50.922;6.928;2023-09-19T15:01:14;22.20;99.90
34698;DHT22;61391;50.922;6.928;2023-09-19T15:03:41;22.30;99.90
34698;DHT22;61391;50.922;6.928;2023-09-19T15:06:08;22.10;99.90
34698;DHT22;61391;50.922;6.928;2023-09-19T15:08:34;22.00;99.90
34698;DHT22;61391;50.922;6.928;2023-09-19T15:11:01;21.90;99.90
34698;DHT22;61391;50.922;6.928;2023-09-19T15:13:31;21.90;99.90
34698;DHT22;61391;50.922;6.928;2023-09-19T15:16:02;21.80;99.90
34698;DHT22;61391;50.922;6.928;2023-09-19T15:18:28;21.80;99.90
34698;DHT22;61391;50.922;6.928;2023-09-19T15:20:56;21.90;99.90
34698;DHT22;61391;50.922;6.928;2023-09-19T15:23:21;21.80;99.90
34698;DHT22;61391;50.922;6.928;2023-09-19T15:25:47;21.60;99.90
34698;DHT22;61391;50.922;6.928;2023-09-19T15:28:13;21.50;99.90
34698;DHT22;61391;50.922;6.928;2023-09-19T15:30:40;21.50;99.90
34698;DHT22;61391;50.922;6.928;2023-09-19T15:33:06;21.50;99.90
34698;DHT22;61391;50.922;6.928;2023-09-19T15:35:32;21.60;99.90
34698;DHT22;61391;50.922;6.928;2023-09-19T15:37:57;21.70;99.90
34698;DHT22;61391;50.922;6.928;2023-09-19T15:40:26;21.60;99.90
34698;DHT22;61391;50.922;6.928;2023-09-19T15:42:52;21.60;99.90
34698;DHT22;61391;50.922;6.928;2023-09-19T15:45:19;21.50;99.90
34698;DHT22;61391;50.922;6.928;2023-09-19T15:47:44;21.50;99.90
34698;DHT22;61391;50.922;6.928;2023-09-19T15:50:10;21.50;99.90
34698;DHT22;61391;50.922;6.928;2023-09-19T15:52:38;21.50;99.90
34698;DHT22;61391;50.922;6.928;2023-09-19T15:55:05;21.50;99.90
34698;DHT22;61391;50.922;6.928;2023-09-19T15:57:32;21.30;99.90
34698;DHT22;61391;50.922;6.928;2023-09-19T15:59:59;21.30;99.90
34698;DHT22;61391;50.922;6.928;2023-09-19T16:05:35;21.40;99.90
34698;DHT22;61391;50.922;6.928;2023-09-19T16:08:05;21.50;99.90
34698;DHT22;61391;50.922;6.928;2023-09-19T16:10:35;21.50;99.90
34698;DHT22;61391;50.922;6.928;2023-09-19T16:13:02;21.40;99.90
34698;DHT22;61391;50.922;6.928;2023-09-19T16:15:28;21.60;99.90
34698;DHT22;61391;50.922;6.928;2023-09-19T16:17:54;21.70;99.90
34698;DHT22;61391;50.922;6.928;2023-09-19T16:20:21;21.70;99.90
34698;DHT22;61391;50.922;6.928;2023-09-19T16:22:49;21.50;99.90
34698;DHT22;61391;50.922;6.928;2023-09-19T16:25:15;21.40;99.90
34698;DHT22;61391;50.922;6.928;2023-09-19T16:27:41;21.50;99.90
34698;DHT22;61391;50.922;6.928;2023-09-19T16:30:07;21.50;99.90
34698;DHT22;61391;50.922;6.928;2023-09-19T16:32:35;21.50;99.90
34698;DHT22;61391;50.922;6.928;2023-09-19T16:35:01;21.40;99.90
34698;DHT22;61391;50.922;6.928;2023-09-19T16:37:27;21.30;99.90
34698;DHT22;61391;50.922;6.928;2023-09-19T16:39:52;21.20;99.90
34698;DHT22;61391;50.922;6.928;2023-09-19T16:42:32;21.30;99.90
34698;DHT22;61391;50.922;6.928;2023-09-19T16:44:58;21.30;99.90
34698;DHT22;61391;50.922;6.928;2023-09-19T16:47:24;21.00;99.90
34698;DHT22;61391;50.922;6.928;2023-09-19T16:49:51;20.90;99.90
34698;DHT22;61391;50.922;6.928;2023-09-19T16:52:18;21.00;99.90
34698;DHT22;61391;50.922;6.928;2023-09-19T16:54:43;20.90;99.90